Terminal Aerodrome Forecast
Issued by NWS Sioux Falls, SD

Home | Current Version | Previous Version | Graphics & Text | Print | Product List | Glossary Off
Versions: 1 2 3 4 5 6 7 8 9 10 11 12 13 14 15 16 17

000
FTUS43 KFSD 221127
TAFFSD
TAF
KFSD 221127Z 2212/2312 17012KT P6SM FEW120
     FM221500 18019G29KT P6SM FEW120
     FM230100 17014KT P6SM VCTS SCT080CB
     FM230400 17011KT P6SM BKN100=

USA.gov is the U.S. government's official web portal to all federal, state and local government web resources and services.